createdAt,value
2022-08-22T00:00:16.329Z,101534.13
2022-08-22T00:03:09.680Z,101572.09
2022-08-22T00:03:09.861Z,101587.03
2022-08-22T00:03:16.196Z,101578.31
2022-08-22T00:05:44.486Z,101504.91
2022-08-22T00:08:38.980Z,101583.56
2022-08-22T00:11:34.873Z,101584.25
2022-08-22T00:14:22.389Z,101587.91
2022-08-22T00:17:12.363Z,101545.28
2022-08-22T00:19:47.670Z,101576.72
2022-08-22T00:22:30.799Z,101587.44
2022-08-22T00:25:29.089Z,101559.41
2022-08-22T00:28:37.701Z,101579.38
2022-08-22T00:31:22.592Z,101593.03
2022-08-22T00:33:55.683Z,101583.34
2022-08-22T00:36:30.538Z,101553.47
2022-08-22T00:39:22.179Z,101566.91
2022-08-22T00:42:03.686Z,101587.88
2022-08-22T00:45:05.456Z,101558.03
2022-08-22T00:47:34.660Z,101585.03
2022-08-22T00:50:22.095Z,101588.63
2022-08-22T00:53:27.750Z,101588.88
2022-08-22T00:56:29.175Z,101591.69
2022-08-22T00:59:33.525Z,101582.38
2022-08-22T01:02:27.836Z,101566.78
2022-08-22T01:05:07.702Z,101604.47
2022-08-22T01:07:52.500Z,101597.81
2022-08-22T01:10:56.817Z,101598.69
2022-08-22T01:13:26.049Z,101592.97
2022-08-22T01:16:05.356Z,101593.41
2022-08-22T01:18:55.925Z,101549.56
2022-08-22T01:21:49.147Z,101550.84
2022-08-22T01:24:21.505Z,101592.00
2022-08-22T01:27:21.530Z,101589.53
2022-08-22T01:30:18.579Z,101595.53
2022-08-22T01:33:22.650Z,101595.00
2022-08-22T01:35:57.912Z,101603.94
2022-08-22T01:38:43.139Z,101600.13
2022-08-22T01:41:30.196Z,101585.75
2022-08-22T01:44:11.601Z,101601.22
2022-08-22T01:47:02.649Z,101560.31
2022-08-22T01:49:35.224Z,101600.09
2022-08-22T01:52:39.015Z,101610.63
2022-08-22T01:55:13.661Z,101602.22
2022-08-22T01:57:58.954Z,101549.13
2022-08-22T02:00:34.883Z,101607.88
2022-08-22T02:03:08.286Z,101610.66
2022-08-22T02:05:51.097Z,101615.28
2022-08-22T02:08:31.490Z,101628.81
2022-08-22T02:11:11.068Z,101605.25
2022-08-22T02:14:00.414Z,101611.06
2022-08-22T02:16:43.376Z,101582.84
2022-08-22T02:19:29.405Z,101552.84
2022-08-22T02:22:04.121Z,101608.84
2022-08-22T02:24:33.342Z,101617.78
2022-08-22T02:27:02.788Z,101619.75
2022-08-22T02:29:36.595Z,101558.56
2022-08-22T02:32:16.329Z,101613.22
2022-08-22T02:34:55.390Z,101603.22
2022-08-22T02:38:00.430Z,101611.81
2022-08-22T02:41:05.436Z,101611.59
2022-08-22T02:43:49.683Z,101609.63
2022-08-22T02:46:26.529Z,101610.31
2022-08-22T02:49:08.974Z,101607.44
2022-08-22T02:52:04.589Z,101588.50
2022-08-22T02:54:47.384Z,101600.94
2022-08-22T02:57:20.174Z,101602.41
2022-08-22T03:00:31.945Z,101596.44
2022-08-22T03:03:28.320Z,101595.28
2022-08-22T03:06:04.856Z,101549.50
2022-08-22T03:08:38.502Z,101543.06
2022-08-22T03:11:19.033Z,101553.03
2022-08-22T03:14:16.212Z,101580.25
2022-08-22T03:17:06.001Z,101558.47
2022-08-22T03:20:00.453Z,101581.41
2022-08-22T03:22:45.692Z,101587.72
2022-08-22T03:25:29.935Z,101583.00
2022-08-22T03:28:38.521Z,101575.44
2022-08-22T03:31:24.253Z,101575.66
2022-08-22T03:34:23.923Z,101580.59
2022-08-22T03:37:10.961Z,101570.13
2022-08-22T03:39:42.709Z,101570.25
2022-08-22T03:42:32.203Z,101565.69
2022-08-22T03:45:26.477Z,101570.19
2022-08-22T03:48:02.965Z,101569.81
2022-08-22T03:50:48.036Z,101570.88
2022-08-22T03:53:23.375Z,101572.00
2022-08-22T03:56:18.005Z,101566.16
2022-08-22T03:58:55.494Z,101569.03
2022-08-22T04:01:41.722Z,101545.84
2022-08-22T04:04:11.143Z,101572.25
2022-08-22T04:06:56.352Z,101574.88
2022-08-22T04:09:40.490Z,101578.88
2022-08-22T04:12:37.449Z,101582.13
2022-08-22T04:15:41.554Z,101580.84
2022-08-22T04:18:37.560Z,101560.50
2022-08-22T04:21:18.894Z,101573.97
2022-08-22T04:23:59.302Z,101574.84
2022-08-22T04:27:02.261Z,101590.22
2022-08-22T04:29:37.099Z,101584.84
2022-08-22T04:32:10.645Z,101584.53
2022-08-22T04:34:55.848Z,101535.81
2022-08-22T04:37:35.158Z,101542.56
2022-08-22T04:40:21.352Z,101598.59
2022-08-22T04:42:54.977Z,101586.25
2022-08-22T04:45:29.424Z,101582.19
2022-08-22T04:48:11.048Z,101598.69
2022-08-22T04:51:18.482Z,101605.03
2022-08-22T04:53:48.050Z,101605.59
2022-08-22T04:56:22.293Z,101597.97
2022-08-22T04:58:56.750Z,101573.06
2022-08-22T05:01:26.726Z,101601.13
2022-08-22T05:04:07.959Z,101607.31
2022-08-22T05:06:43.573Z,101565.59
2022-08-22T05:09:16.407Z,101549.13
2022-08-22T05:11:43.318Z,101556.16
2022-08-22T05:14:23.321Z,101560.38
2022-08-22T05:16:52.607Z,101611.03
2022-08-22T05:19:31.153Z,101569.03
2022-08-22T05:21:59.503Z,101614.72
2022-08-22T05:24:32.494Z,101609.06
2022-08-22T05:27:09.332Z,101608.75
2022-08-22T05:29:40.107Z,101613.22
2022-08-22T05:32:15.351Z,101567.28
2022-08-22T05:34:45.022Z,101611.94
2022-08-22T05:37:21.205Z,101619.88
2022-08-22T05:39:54.841Z,101615.63
2022-08-22T05:42:31.945Z,101607.13
2022-08-22T05:45:01.592Z,101600.59
2022-08-22T05:47:38.275Z,101619.19
2022-08-22T05:50:14.078Z,101619.28
2022-08-22T05:53:04.749Z,101609.44
2022-08-22T05:55:55.119Z,101618.38
2022-08-22T05:58:40.071Z,101612.28
2022-08-22T06:01:33.203Z,101614.72
2022-08-22T06:04:03.175Z,101601.94
2022-08-22T06:06:34.998Z,101618.94
2022-08-22T06:09:04.294Z,101567.75
2022-08-22T06:11:51.725Z,101599.66
2022-08-22T06:14:51.444Z,101583.38
2022-08-22T06:17:27.115Z,101622.22
2022-08-22T06:19:54.797Z,101613.75
2022-08-22T06:22:27.663Z,101619.00
2022-08-22T06:25:07.745Z,101567.66
2022-08-22T06:27:35.149Z,101599.06
2022-08-22T06:30:04.104Z,101610.81
2022-08-22T06:32:58.892Z,101613.16
2022-08-22T06:35:31.230Z,101602.97
2022-08-22T06:38:00.351Z,101596.88
2022-08-22T06:40:29.173Z,101607.91
2022-08-22T06:42:57.391Z,101590.88
2022-08-22T06:45:30.398Z,101590.13
2022-08-22T06:48:06.435Z,101610.38
2022-08-22T06:50:37.475Z,101606.19
2022-08-22T06:53:12.787Z,101579.28
2022-08-22T06:55:46.234Z,101568.50
2022-08-22T06:58:20.719Z,101611.16
2022-08-22T07:01:11.128Z,101589.41
2022-08-22T07:03:47.168Z,101578.06
2022-08-22T07:06:28.095Z,101588.06
2022-08-22T07:08:55.392Z,101574.63
2022-08-22T07:11:39.906Z,101582.91
2022-08-22T07:14:11.880Z,101576.28
2022-08-22T07:16:44.189Z,101529.13
2022-08-22T07:19:23.550Z,101518.75
2022-08-22T07:21:50.036Z,101549.53
2022-08-22T07:24:25.318Z,101565.59
2022-08-22T07:27:04.791Z,101558.56
2022-08-22T07:30:10.123Z,101503.53
2022-08-22T07:33:17.765Z,101564.97
2022-08-22T07:35:53.409Z,101552.22
2022-08-22T07:38:38.192Z,101571.44
2022-08-22T07:41:09.956Z,101582.28
2022-08-22T07:43:50.062Z,101543.91
2022-08-22T07:46:19.573Z,101573.69
2022-08-22T07:49:08.090Z,101568.03
2022-08-22T07:51:43.155Z,101530.66
2022-08-22T07:54:22.786Z,101526.44
2022-08-22T07:56:57.716Z,101574.34
2022-08-22T07:59:25.913Z,101558.44
2022-08-22T08:01:56.333Z,101553.50
2022-08-22T08:04:28.943Z,101557.75
2022-08-22T08:06:59.134Z,101505.59
2022-08-22T08:09:31.732Z,101569.91
2022-08-22T08:12:00.295Z,101574.16
2022-08-22T08:14:27.968Z,101578.56
2022-08-22T08:17:02.212Z,101571.72
2022-08-22T08:19:30.853Z,101529.84
2022-08-22T08:21:58.731Z,101524.59
2022-08-22T08:24:34.539Z,101535.22
2022-08-22T08:27:16.331Z,101555.72
2022-08-22T08:29:50.753Z,101562.59
2022-08-22T08:32:18.187Z,101577.50
2022-08-22T08:34:44.845Z,101533.50
2022-08-22T08:37:26.234Z,101562.63
2022-08-22T08:39:57.211Z,101553.97
2022-08-22T08:42:42.171Z,101580.53
2022-08-22T08:45:39.420Z,101569.06
2022-08-22T08:48:15.058Z,101562.06
2022-08-22T08:51:10.107Z,101564.78
2022-08-22T08:54:04.682Z,101526.88
2022-08-22T08:56:47.228Z,101558.34
2022-08-22T08:59:35.789Z,101557.56
2022-08-22T09:02:33.022Z,101515.50
2022-08-22T09:05:29.571Z,101556.34
2022-08-22T09:08:14.676Z,101549.06
2022-08-22T09:11:16.946Z,101551.88
2022-08-22T09:14:09.560Z,101549.31
2022-08-22T09:16:51.889Z,101550.56
2022-08-22T09:19:24.528Z,101538.38
2022-08-22T09:22:03.062Z,101545.25
2022-08-22T09:24:59.255Z,101536.25
2022-08-22T09:27:37.178Z,101534.69
2022-08-22T09:30:07.913Z,101498.53
2022-08-22T09:32:38.083Z,101542.09
2022-08-22T09:35:11.311Z,101508.44
2022-08-22T09:37:50.171Z,101536.09
2022-08-22T09:40:30.843Z,101496.03
2022-08-22T09:43:04.868Z,101534.09
2022-08-22T09:45:42.968Z,101535.34
2022-08-22T09:48:19.017Z,101531.97
2022-08-22T09:51:32.112Z,101529.06
2022-08-22T09:54:19.096Z,101523.75
2022-08-22T09:56:58.649Z,101514.16
2022-08-22T09:59:27.802Z,101511.25
2022-08-22T10:02:15.384Z,101511.72
2022-08-22T10:04:55.270Z,101509.66
2022-08-22T10:07:54.908Z,101485.16
2022-08-22T10:10:43.401Z,101500.88
2022-08-22T10:13:24.013Z,101488.34
2022-08-22T10:16:01.778Z,101496.34
2022-08-22T10:19:09.724Z,101496.59
2022-08-22T10:22:13.832Z,101492.09
2022-08-22T10:25:09.409Z,101495.25
2022-08-22T10:27:55.358Z,101496.50
2022-08-22T10:30:35.784Z,101484.09
2022-08-22T10:33:05.366Z,101467.09
2022-08-22T10:35:39.837Z,101447.38
2022-08-22T10:38:10.740Z,101425.59
2022-08-22T10:40:53.311Z,101428.88
2022-08-22T10:43:28.857Z,101428.38
2022-08-22T10:46:12.517Z,101462.50
2022-08-22T10:49:07.998Z,101457.59
2022-08-22T10:51:53.416Z,101414.91
2022-08-22T10:54:29.010Z,101441.16
2022-08-22T10:56:59.227Z,101454.13
2022-08-22T10:59:46.332Z,101457.75
2022-08-22T11:02:23.217Z,101454.78
2022-08-22T11:05:02.798Z,101423.09
2022-08-22T11:07:29.208Z,101451.09
2022-08-22T11:10:04.864Z,101412.16
2022-08-22T11:12:42.704Z,101455.16
2022-08-22T11:15:28.334Z,101454.34
2022-08-22T11:18:07.682Z,101462.72
2022-08-22T11:21:16.902Z,101454.97
2022-08-22T11:24:01.525Z,101454.94
2022-08-22T11:26:46.842Z,101414.09
2022-08-22T11:29:28.867Z,101450.47
2022-08-22T11:32:05.849Z,101456.75
2022-08-22T11:35:09.533Z,101463.72
2022-08-22T11:37:56.264Z,101465.59
2022-08-22T11:40:42.607Z,101456.31
2022-08-22T11:43:37.228Z,101454.22
2022-08-22T11:46:20.296Z,101450.34
2022-08-22T11:48:55.788Z,101455.69
2022-08-22T11:51:47.750Z,101456.97
2022-08-22T11:54:44.467Z,101414.75
2022-08-22T11:57:17.550Z,101454.25
2022-08-22T12:00:32.735Z,101450.19
2022-08-22T12:03:24.415Z,101450.44
2022-08-22T12:06:01.156Z,101440.75
2022-08-22T12:08:30.361Z,101455.47
2022-08-22T12:11:09.840Z,101401.75
2022-08-22T12:14:06.500Z,101457.22
2022-08-22T12:17:10.627Z,101450.91
2022-08-22T12:20:16.498Z,101450.34
2022-08-22T12:23:17.290Z,101441.41
2022-08-22T12:25:46.373Z,101445.81
2022-08-22T12:28:30.054Z,101440.38
2022-08-22T12:31:07.786Z,101442.88
2022-08-22T12:33:50.814Z,101436.53
2022-08-22T12:36:40.542Z,101420.88
2022-08-22T12:39:33.129Z,101421.72
2022-08-22T12:42:11.859Z,101422.34
2022-08-22T12:45:17.975Z,101420.84
2022-08-22T12:48:15.571Z,101410.28
2022-08-22T12:50:50.199Z,101415.09
2022-08-22T12:53:51.805Z,101396.72
2022-08-22T12:56:29.378Z,101365.16
2022-08-22T12:59:23.436Z,101400.03
2022-08-22T13:01:54.615Z,101381.34
2022-08-22T13:04:33.202Z,101397.09
2022-08-22T13:07:22.608Z,101397.41
2022-08-22T13:09:55.263Z,101363.56
2022-08-22T13:12:36.289Z,101359.25
2022-08-22T13:15:15.633Z,101399.41
2022-08-22T13:17:45.570Z,101391.38
2022-08-22T13:20:23.818Z,101399.69
2022-08-22T13:22:54.423Z,101399.34
2022-08-22T13:25:25.452Z,101388.47
2022-08-22T13:27:56.938Z,101393.56
2022-08-22T13:30:37.808Z,101397.59
2022-08-22T13:33:14.528Z,101389.75
2022-08-22T13:35:54.580Z,101372.25
2022-08-22T13:38:26.849Z,101383.41
2022-08-22T13:40:56.717Z,101376.06
2022-08-22T13:43:53.826Z,101370.16
2022-08-22T13:46:29.001Z,101355.56
2022-08-22T13:49:01.162Z,101374.09
2022-08-22T13:52:01.178Z,101361.59
2022-08-22T13:54:55.859Z,101365.28
2022-08-22T13:57:40.612Z,101320.25
2022-08-22T14:00:30.318Z,101368.31
2022-08-22T14:03:18.025Z,101361.03
2022-08-22T14:05:54.900Z,101320.72
2022-08-22T14:08:36.987Z,101358.31
2022-08-22T14:11:12.451Z,101335.50
2022-08-22T14:13:46.928Z,101363.88
2022-08-22T14:16:24.572Z,101348.38
2022-08-22T14:18:58.522Z,101338.75
2022-08-22T14:21:40.659Z,101353.72
2022-08-22T14:24:26.900Z,101361.91
2022-08-22T14:27:05.708Z,101357.72
2022-08-22T14:29:51.889Z,101323.38
2022-08-22T14:32:22.624Z,101357.06
2022-08-22T14:35:00.487Z,101357.88
2022-08-22T14:37:38.964Z,101351.22
2022-08-22T14:40:10.449Z,101356.22
2022-08-22T14:42:52.805Z,101338.88
2022-08-22T14:45:27.015Z,101335.50
2022-08-22T14:48:14.495Z,101344.72
2022-08-22T14:50:53.380Z,101287.66
2022-08-22T14:53:25.192Z,101341.56
2022-08-22T14:56:01.042Z,101339.31
2022-08-22T14:58:31.359Z,101298.28
2022-08-22T15:01:11.681Z,101331.94
2022-08-22T15:03:40.323Z,101293.81
2022-08-22T15:06:13.457Z,101328.53
2022-08-22T15:08:46.397Z,101327.41
2022-08-22T15:11:18.855Z,101293.69
2022-08-22T15:14:01.642Z,101327.84
2022-08-22T15:16:33.814Z,101276.34
2022-08-22T15:19:01.443Z,101324.09
2022-08-22T15:21:33.194Z,101322.81
2022-08-22T15:24:12.427Z,101271.06
2022-08-22T15:26:50.146Z,101313.16
2022-08-22T15:29:24.609Z,101255.13
2022-08-22T15:32:03.425Z,101315.53
2022-08-22T15:34:39.963Z,101268.03
2022-08-22T15:37:16.635Z,101254.44
2022-08-22T15:40:08.380Z,101302.19
2022-08-22T15:42:47.153Z,101284.84
2022-08-22T15:45:36.216Z,101303.41
2022-08-22T15:48:09.393Z,101255.63
2022-08-22T15:50:40.627Z,101299.31
2022-08-22T15:53:26.363Z,101292.56
2022-08-22T15:56:11.337Z,101283.75
2022-08-22T15:58:40.319Z,101280.72
2022-08-22T16:01:19.652Z,101274.28
2022-08-22T16:04:02.213Z,101236.41
2022-08-22T16:06:52.672Z,101285.13
2022-08-22T16:09:38.212Z,101276.00
2022-08-22T16:12:25.072Z,101254.38
2022-08-22T16:14:53.265Z,101275.31
2022-08-22T16:17:28.484Z,101277.63
2022-08-22T16:20:19.563Z,101254.44
2022-08-22T16:22:55.612Z,101274.41
2022-08-22T16:25:43.796Z,101267.69
2022-08-22T16:28:56.713Z,101253.16
2022-08-22T16:31:25.153Z,101258.16
2022-08-22T16:33:51.760Z,101249.81
2022-08-22T16:36:24.051Z,101268.25
2022-08-22T16:38:54.028Z,101227.78
2022-08-22T16:41:28.891Z,101261.22
2022-08-22T16:44:14.951Z,101258.69
2022-08-22T16:46:46.119Z,101260.63
2022-08-22T16:49:25.931Z,101254.97
2022-08-22T16:52:20.618Z,101241.13
2022-08-22T16:55:02.469Z,101187.38
2022-08-22T16:58:19.590Z,101243.03
2022-08-22T17:00:51.915Z,101245.31
2022-08-22T17:03:42.900Z,101237.38
2022-08-22T17:06:24.729Z,101238.63
2022-08-22T17:09:12.175Z,101242.00
2022-08-22T17:11:38.588Z,101245.56
2022-08-22T17:14:31.533Z,101249.19
2022-08-22T17:17:16.429Z,101235.19
2022-08-22T17:19:52.062Z,101255.03
2022-08-22T17:22:32.783Z,101206.63
2022-08-22T17:25:20.899Z,101247.34
2022-08-22T17:28:21.152Z,101243.28
2022-08-22T17:31:00.551Z,101206.50
2022-08-22T17:33:55.082Z,101203.25
2022-08-22T17:36:49.540Z,101256.03
2022-08-22T17:40:03.717Z,101254.25
2022-08-22T17:42:51.327Z,101253.59
2022-08-22T17:45:33.415Z,101250.38
2022-08-22T17:48:07.119Z,101248.53
2022-08-22T17:50:53.939Z,101255.09
2022-08-22T17:53:24.579Z,101267.19
2022-08-22T17:56:03.753Z,101255.63
2022-08-22T17:58:43.341Z,101260.91
2022-08-22T18:01:33.039Z,101259.66
2022-08-22T18:04:04.580Z,101262.97
2022-08-22T18:06:36.299Z,101251.41
2022-08-22T18:09:17.062Z,101264.91
2022-08-22T18:11:54.399Z,101262.09
2022-08-22T18:14:40.471Z,101266.75
2022-08-22T18:17:32.828Z,101266.81
2022-08-22T18:20:25.078Z,101251.41
2022-08-22T18:23:28.428Z,101236.91
2022-08-22T18:26:06.380Z,101265.50
2022-08-22T18:28:35.979Z,101268.66
2022-08-22T18:31:38.645Z,101265.09
2022-08-22T18:34:36.682Z,101267.50
2022-08-22T18:37:24.481Z,101268.22
2022-08-22T18:39:57.170Z,101222.19
2022-08-22T18:42:50.722Z,101263.06
2022-08-22T18:45:43.690Z,101272.44
2022-08-22T18:49:11.647Z,101276.41
2022-08-22T18:51:34.404Z,101240.34
2022-08-22T18:54:04.589Z,101278.81
2022-08-22T18:56:31.061Z,101275.16
2022-08-22T18:59:11.371Z,101244.47
2022-08-22T19:01:59.725Z,101281.75
2022-08-22T19:04:44.409Z,101280.19
2022-08-22T19:07:33.880Z,101290.56
2022-08-22T19:10:12.421Z,101285.44
2022-08-22T19:13:06.880Z,101292.25
2022-08-22T19:16:06.326Z,101290.09
2022-08-22T19:18:41.652Z,101293.59
2022-08-22T19:21:16.867Z,101297.28
2022-08-22T19:23:47.586Z,101256.38
2022-08-22T19:26:44.673Z,101273.38
2022-08-22T19:29:13.973Z,101298.34
2022-08-22T19:32:13.214Z,101300.44
2022-08-22T19:34:47.082Z,101294.66
2022-08-22T19:37:32.049Z,101308.72
2022-08-22T19:40:09.804Z,101302.09
2022-08-22T19:42:38.956Z,101298.59
2022-08-22T19:45:17.246Z,101295.22
2022-08-22T19:47:54.631Z,101282.97
2022-08-22T19:50:21.008Z,101300.53
2022-08-22T19:52:56.738Z,101298.16
2022-08-22T19:55:38.553Z,101297.31
2022-08-22T19:58:17.549Z,101284.03
2022-08-22T20:01:04.248Z,101301.06
2022-08-22T20:03:56.957Z,101296.03
2022-08-22T20:06:45.092Z,101290.44
2022-08-22T20:10:02.682Z,101292.81
2022-08-22T20:12:29.107Z,101243.16
2022-08-22T20:14:56.272Z,101289.91
2022-08-22T20:17:25.607Z,101304.59
2022-08-22T20:20:35.035Z,101284.91
2022-08-22T20:23:32.352Z,101304.28
2022-08-22T20:25:59.537Z,101264.47
2022-08-22T20:28:47.752Z,101274.28
2022-08-22T20:31:26.535Z,101268.44
2022-08-22T20:34:00.420Z,101296.06
2022-08-22T20:36:28.646Z,101294.72
2022-08-22T20:39:05.149Z,101303.28
2022-08-22T20:41:36.967Z,101272.44
2022-08-22T20:44:13.780Z,101297.97
2022-08-22T20:46:46.464Z,101287.28
2022-08-22T20:49:25.898Z,101253.53
2022-08-22T20:51:54.039Z,101296.91
2022-08-22T20:54:23.057Z,101293.16
2022-08-22T20:57:00.552Z,101293.44
2022-08-22T20:59:32.717Z,101242.06
2022-08-22T21:02:08.752Z,101275.84
2022-08-22T21:05:05.915Z,101283.78
2022-08-22T21:07:38.561Z,101286.19
2022-08-22T21:10:22.974Z,101283.50
2022-08-22T21:13:12.493Z,101244.44
2022-08-22T21:15:46.107Z,101286.41
2022-08-22T21:18:23.314Z,101280.06
2022-08-22T21:20:49.920Z,101287.47
2022-08-22T21:23:17.102Z,101256.34
2022-08-22T21:26:00.155Z,101282.13
2022-08-22T21:28:40.893Z,101232.94
2022-08-22T21:31:14.720Z,101286.59
2022-08-22T21:33:47.133Z,101283.47
2022-08-22T21:36:26.283Z,101290.09
2022-08-22T21:39:05.816Z,101278.63
2022-08-22T21:41:41.466Z,101291.16
2022-08-22T21:44:31.809Z,101244.03
2022-08-22T21:47:23.295Z,101243.72
2022-08-22T21:50:08.246Z,101262.47
2022-08-22T21:52:37.598Z,101254.28
2022-08-22T21:55:14.955Z,101302.66
2022-08-22T21:57:42.033Z,101288.31
2022-08-22T22:00:48.809Z,101299.41
2022-08-22T22:03:19.845Z,101263.44
2022-08-22T22:05:47.137Z,101245.56
2022-08-22T22:08:13.621Z,101295.31
2022-08-22T22:10:43.159Z,101299.47
2022-08-22T22:13:10.589Z,101299.00
2022-08-22T22:15:42.348Z,101295.66
2022-08-22T22:18:08.784Z,101295.63
2022-08-22T22:20:35.321Z,101254.72
2022-08-22T22:23:01.757Z,101265.44
2022-08-22T22:25:40.890Z,101297.09
2022-08-22T22:28:30.426Z,101298.44
2022-08-22T22:30:57.173Z,101254.94
2022-08-22T22:33:27.662Z,101269.06
2022-08-22T22:35:57.169Z,101292.56
2022-08-22T22:38:24.448Z,101299.53
2022-08-22T22:40:52.046Z,101308.50
2022-08-22T22:43:18.763Z,101305.75
2022-08-22T22:45:45.344Z,101306.88
2022-08-22T22:48:12.061Z,101253.03
2022-08-22T22:50:48.705Z,101304.81
2022-08-22T22:53:19.924Z,101314.13
2022-08-22T22:55:47.821Z,101261.06
2022-08-22T22:58:27.480Z,101276.13
2022-08-22T23:00:54.057Z,101322.69
2022-08-22T23:03:20.570Z,101312.53
2022-08-22T23:05:46.998Z,101279.63
2022-08-22T23:08:13.503Z,101307.25
2022-08-22T23:10:40.063Z,101325.16
2022-08-22T23:13:06.484Z,101327.56
2022-08-22T23:15:32.975Z,101328.56
2022-08-22T23:17:59.609Z,101328.94
2022-08-22T23:20:26.196Z,101323.28
2022-08-22T23:22:52.638Z,101321.34
2022-08-22T23:25:20.605Z,101267.66
2022-08-22T23:27:48.714Z,101310.63
2022-08-22T23:30:20.635Z,101266.63
2022-08-22T23:32:47.079Z,101310.16
2022-08-22T23:35:13.583Z,101311.84
2022-08-22T23:37:40.148Z,101272.88
2022-08-22T23:40:07.402Z,101295.59
2022-08-22T23:42:34.044Z,101279.06
2022-08-22T23:45:00.474Z,101323.59
2022-08-22T23:47:26.944Z,101326.44
2022-08-22T23:49:53.451Z,101318.34
2022-08-22T23:52:19.982Z,101300.47
2022-08-22T23:54:46.406Z,101271.06
2022-08-22T23:57:13.539Z,101323.91
2022-08-22T23:59:46.450Z,101294.28
